Time;durP1;ratioP1;P1;durP2;ratioP2;P2;SDS_P1;SDS_P2;PMS_P1;PMS_P2;Temp;Humidity;BMP_temperature;BMP_pressure;BME280_temperature;BME280_humidity;BME280_pressure;Samples;Min_cycle;Max_cycle;Signal;HPM_P1;HPM_P2
2023/04/08 00:01:03;;;;;;;65.65;34.63;;;11.50;66.40;;;;;;4962542;28;20058;-47
2023/04/08 00:03:31;;;;;;;64.35;34.85;;;11.50;66.60;;;;;;4961958;28;20061;-47
2023/04/08 00:05:59;;;;;;;76.43;35.83;;;11.50;66.70;;;;;;4967231;28;20055;-44
2023/04/08 00:08:27;;;;;;;80.72;38.88;;;11.50;66.60;;;;;;4967112;28;20066;-45
2023/04/08 00:10:54;;;;;;;64.45;33.65;;;11.50;66.70;;;;;;4967093;28;20056;-47
2023/04/08 00:13:22;;;;;;;78.40;40.42;;;11.50;66.60;;;;;;4967069;28;20054;-47
2023/04/08 00:15:50;;;;;;;71.70;37.60;;;11.50;66.60;;;;;;4967238;28;20051;-48
2023/04/08 00:18:17;;;;;;;84.90;39.47;;;11.50;66.50;;;;;;4966660;28;20065;-46
2023/04/08 00:20:44;;;;;;;72.10;35.72;;;11.60;66.60;;;;;;4966530;28;20058;-46
2023/04/08 00:23:11;;;;;;;61.85;34.72;;;11.60;66.60;;;;;;4967687;28;20507;-46
2023/04/08 00:25:39;;;;;;;80.88;39.53;;;11.60;66.50;;;;;;4967457;28;20058;-46
2023/04/08 00:28:06;;;;;;;74.55;37.38;;;11.60;66.50;;;;;;4966994;28;20051;-49
2023/04/08 00:30:35;;;;;;;66.07;36.10;;;11.60;66.40;;;;;;4968429;28;20422;-50
2023/04/08 00:33:02;;;;;;;79.63;38.97;;;11.60;66.40;;;;;;4967301;28;20058;-45
2023/04/08 00:35:29;;;;;;;68.57;35.92;;;11.70;66.40;;;;;;4966150;28;21044;-46
2023/04/08 00:37:57;;;;;;;80.80;38.50;;;11.70;66.30;;;;;;4966964;28;20055;-51
2023/04/08 00:40:24;;;;;;;76.85;40.05;;;11.70;66.20;;;;;;4967834;28;20070;-48
2023/04/08 00:42:51;;;;;;;78.45;37.63;;;11.70;66.00;;;;;;4965658;28;20054;-49
2023/04/08 00:45:18;;;;;;;84.47;38.22;;;11.80;65.90;;;;;;4967559;28;20438;-45
2023/04/08 00:47:51;;;;;;;76.68;37.28;;;11.80;65.90;;;;;;4967713;28;20054;-46
2023/04/08 00:50:19;;;;;;;75.53;35.67;;;11.80;65.70;;;;;;4964938;28;20066;-44
2023/04/08 00:52:46;;;;;;;54.10;30.60;;;11.80;65.60;;;;;;4966168;28;20058;-45
2023/04/08 00:55:13;;;;;;;55.10;29.95;;;11.80;65.60;;;;;;4967364;28;20475;-50
2023/04/08 00:57:41;;;;;;;59.00;29.27;;;11.80;65.60;;;;;;4965801;28;20066;-51
2023/04/08 01:00:15;;;;;;;57.00;28.08;;;11.80;65.60;;;;;;4967094;28;20126;-50
2023/04/08 01:02:51;;;;;;;56.08;29.17;;;11.80;65.50;;;;;;4967036;28;20065;-48
2023/04/08 01:05:30;;;;;;;50.08;26.77;;;11.90;65.40;;;;;;4966537;28;20059;-47
2023/04/08 01:07:59;;;;;;;50.85;26.17;;;11.90;65.30;;;;;;4966902;28;20062;-47
2023/04/08 01:10:31;;;;;;;47.78;26.48;;;11.90;65.30;;;;;;4968121;28;20051;-50
2023/04/08 01:13:01;;;;;;;56.60;26.55;;;11.90;65.30;;;;;;4965577;28;20070;-46
2023/04/08 01:15:30;;;;;;;47.47;27.48;;;11.90;65.20;;;;;;4966198;28;20047;-48
2023/04/08 01:18:00;;;;;;;51.53;26.77;;;11.90;65.10;;;;;;4967272;28;20135;-48
2023/04/08 01:20:29;;;;;;;55.10;29.65;;;11.90;65.10;;;;;;4967191;28;20062;-47
2023/04/08 01:23:05;;;;;;;57.33;30.30;;;11.90;65.00;;;;;;4967248;28;20054;-47
2023/04/08 01:25:35;;;;;;;44.05;26.10;;;11.90;64.80;;;;;;4966479;28;20062;-46
2023/04/08 01:28:07;;;;;;;48.45;25.77;;;11.90;64.80;;;;;;4966391;28;20404;-46
2023/04/08 01:30:35;;;;;;;49.45;26.20;;;11.90;64.90;;;;;;4966430;28;20066;-47
2023/04/08 01:33:05;;;;;;;48.70;26.90;;;11.90;64.90;;;;;;4966038;28;20405;-47
2023/04/08 01:35:33;;;;;;;46.95;26.10;;;11.90;65.00;;;;;;4965956;28;20069;-47
2023/04/08 01:38:02;;;;;;;55.67;27.65;;;11.90;64.90;;;;;;4968393;28;20531;-47
2023/04/08 01:40:30;;;;;;;46.88;27.20;;;11.90;64.90;;;;;;4966418;28;20505;-47
2023/04/08 01:43:00;;;;;;;60.55;31.23;;;11.90;64.90;;;;;;4965454;28;20058;-50
2023/04/08 01:45:30;;;;;;;45.88;25.95;;;11.90;64.80;;;;;;4966702;28;20066;-46
2023/04/08 01:47:59;;;;;;;48.40;25.70;;;11.90;64.70;;;;;;4966551;28;20058;-47
2023/04/08 01:50:28;;;;;;;39.70;24.08;;;11.90;64.60;;;;;;4964928;28;20941;-47
2023/04/08 01:52:58;;;;;;;60.55;25.35;;;12.00;64.60;;;;;;4966191;28;20146;-48
2023/04/08 01:55:27;;;;;;;51.92;26.83;;;12.00;64.60;;;;;;4966552;28;20055;-47
2023/04/08 01:57:59;;;;;;;62.38;29.05;;;11.90;64.50;;;;;;4965234;28;20058;-50
2023/04/08 02:00:32;;;;;;;46.60;26.75;;;12.00;64.50;;;;;;4965820;28;20062;-52
2023/04/08 02:03:00;;;;;;;56.38;27.48;;;12.00;64.50;;;;;;4965866;28;20058;-47
2023/04/08 02:05:28;;;;;;;45.95;26.70;;;12.00;64.40;;;;;;4963502;28;20503;-47
2023/04/08 02:08:29;;;;;;;47.10;23.65;;;12.00;64.40;;;;;;4966521;28;20043;-47
2023/04/08 02:10:56;;;;;;;62.42;29.08;;;11.90;64.60;;;;;;4967251;28;20492;-47
2023/04/08 02:13:23;;;;;;;55.72;25.52;;;12.00;64.30;;;;;;4965343;28;20062;-50
2023/04/08 02:15:57;;;;;;;49.90;27.42;;;12.00;64.30;;;;;;4964697;28;20050;-46
2023/04/08 02:18:27;;;;;;;60.47;30.40;;;12.00;64.30;;;;;;4964696;28;20054;-47
2023/04/08 02:21:02;;;;;;;53.13;27.70;;;12.00;64.30;;;;;;4965548;28;20047;-52
2023/04/08 02:23:33;;;;;;;44.85;25.98;;;12.00;64.30;;;;;;4965643;28;20058;-47
2023/04/08 02:26:02;;;;;;;49.88;27.15;;;12.00;64.20;;;;;;4966846;28;21793;-46
2023/04/08 02:28:32;;;;;;;51.67;28.10;;;12.00;64.20;;;;;;4965988;28;20055;-50
2023/04/08 02:31:02;;;;;;;59.50;29.83;;;12.00;64.20;;;;;;4965123;28;20059;-47
2023/04/08 02:33:29;;;;;;;56.85;32.03;;;12.00;64.20;;;;;;4963069;28;20065;-49
2023/04/08 02:35:57;;;;;;;53.85;28.65;;;12.00;64.20;;;;;;4965641;28;20525;-49
2023/04/08 02:38:28;;;;;;;48.55;26.05;;;12.00;64.10;;;;;;4965854;28;20062;-47
2023/04/08 02:40:56;;;;;;;44.90;25.95;;;12.00;64.10;;;;;;4964961;28;20070;-47
2023/04/08 02:43:25;;;;;;;45.72;28.90;;;12.00;64.20;;;;;;4964249;28;20113;-47
2023/04/08 02:45:53;;;;;;;43.55;25.90;;;12.00;64.20;;;;;;4966091;28;20061;-47
2023/04/08 02:48:21;;;;;;;53.03;29.90;;;12.00;64.20;;;;;;4964560;28;20054;-50
2023/04/08 02:50:48;;;;;;;57.67;29.98;;;12.00;64.20;;;;;;4965352;28;20069;-45
2023/04/08 02:53:16;;;;;;;54.55;29.50;;;12.00;64.10;;;;;;4964405;28;20070;-46
2023/04/08 02:55:43;;;;;;;82.68;32.83;;;12.00;64.10;;;;;;4965428;28;20054;-46
2023/04/08 02:58:10;;;;;;;71.43;31.13;;;12.00;64.10;;;;;;4964723;28;20051;-45
2023/04/08 03:00:38;;;;;;;70.65;29.77;;;12.00;64.10;;;;;;4965089;28;20623;-44
2023/04/08 03:03:06;;;;;;;51.92;30.67;;;12.00;64.20;;;;;;4966042;28;20519;-45
2023/04/08 03:05:34;;;;;;;41.42;27.17;;;11.90;64.20;;;;;;4963476;28;20055;-45
2023/04/08 03:08:02;;;;;;;43.50;28.15;;;11.90;64.40;;;;;;4964980;28;20414;-45
2023/04/08 03:10:29;;;;;;;77.45;33.05;;;11.90;64.50;;;;;;4964601;28;20413;-45
2023/04/08 03:12:56;;;;;;;63.00;31.48;;;11.90;64.50;;;;;;4965285;28;20509;-45
2023/04/08 03:15:23;;;;;;;81.60;32.45;;;11.90;64.50;;;;;;4965429;28;20058;-45
2023/04/08 03:17:51;;;;;;;95.78;32.50;;;11.80;64.40;;;;;;4964693;28;20521;-45
2023/04/08 03:20:18;;;;;;;96.28;33.90;;;11.80;64.50;;;;;;4964013;28;20069;-45
2023/04/08 03:22:46;;;;;;;181.77;34.25;;;11.80;64.60;;;;;;4964386;28;20074;-46
2023/04/08 03:25:14;;;;;;;62.80;31.90;;;11.80;64.70;;;;;;4964647;28;20083;-48
2023/04/08 03:27:47;;;;;;;78.47;31.92;;;11.70;64.70;;;;;;4963930;28;20510;-47
2023/04/08 03:30:14;;;;;;;47.30;29.43;;;11.70;64.90;;;;;;4963025;28;20055;-47
2023/04/08 03:32:42;;;;;;;56.88;30.13;;;11.70;65.00;;;;;;4964643;28;20054;-48
2023/04/08 03:35:09;;;;;;;72.60;31.92;;;11.70;65.10;;;;;;4963688;28;20062;-47
2023/04/08 03:37:37;;;;;;;48.97;31.58;;;11.70;65.20;;;;;;4965422;28;20437;-46
2023/04/08 03:40:07;;;;;;;224.98;36.30;;;11.70;65.20;;;;;;4963180;28;20058;-45
2023/04/08 03:42:34;;;;;;;83.80;33.20;;;11.70;65.30;;;;;;4964675;28;20065;-45
2023/04/08 03:45:01;;;;;;;72.20;32.08;;;11.70;65.30;;;;;;4963262;28;20054;-45
2023/04/08 03:47:28;;;;;;;50.70;31.92;;;11.70;65.40;;;;;;4964752;28;20480;-45
2023/04/08 03:49:56;;;;;;;79.80;32.83;;;11.70;65.40;;;;;;4963165;28;21212;-45
2023/04/08 03:52:24;;;;;;;191.60;36.85;;;11.70;65.50;;;;;;4964118;28;20059;-46
2023/04/08 03:54:51;;;;;;;57.33;33.08;;;11.70;65.60;;;;;;4964380;28;20061;-51
2023/04/08 03:57:20;;;;;;;47.83;30.52;;;11.60;65.50;;;;;;4964193;28;20054;-44
2023/04/08 03:59:47;;;;;;;74.25;33.85;;;11.70;65.50;;;;;;4962907;28;20050;-46
2023/04/08 04:02:14;;;;;;;70.00;35.85;;;11.70;65.60;;;;;;4964469;28;20089;-47
2023/04/08 04:04:41;;;;;;;322.35;42.70;;;11.70;65.60;;;;;;4962979;28;20720;-46
2023/04/08 04:07:09;;;;;;;81.70;37.70;;;11.70;65.60;;;;;;4964358;28;20069;-46
2023/04/08 04:09:36;;;;;;;202.52;41.78;;;11.60;65.60;;;;;;4963791;28;20487;-47
2023/04/08 04:12:03;;;;;;;66.03;35.90;;;11.60;65.60;;;;;;4963923;28;20046;-48
2023/04/08 04:14:32;;;;;;;62.42;34.22;;;11.60;65.50;;;;;;4962905;28;20149;-45
2023/04/08 04:16:59;;;;;;;82.30;37.60;;;11.60;65.60;;;;;;4965054;28;20062;-50
2023/04/08 04:19:30;;;;;;;97.93;39.45;;;11.60;65.70;;;;;;4963170;28;20051;-46
2023/04/08 04:21:57;;;;;;;63.97;34.85;;;11.60;65.60;;;;;;4963662;28;20058;-45
2023/04/08 04:24:24;;;;;;;62.17;32.28;;;11.60;65.60;;;;;;4963728;28;20084;-45
2023/04/08 04:26:51;;;;;;;70.30;34.45;;;11.50;65.70;;;;;;4964114;28;20062;-47
2023/04/08 04:29:19;;;;;;;53.60;30.15;;;11.50;65.80;;;;;;4963706;28;20054;-47
2023/04/08 04:31:47;;;;;;;52.75;28.02;;;11.50;65.80;;;;;;4964852;28;20055;-45
2023/04/08 04:34:16;;;;;;;49.00;27.17;;;11.60;66.00;;;;;;4962560;28;20065;-49
2023/04/08 04:36:43;;;;;;;49.63;26.80;;;11.60;66.00;;;;;;4962229;28;20407;-49
2023/04/08 04:39:10;;;;;;;45.10;26.98;;;11.60;65.80;;;;;;4964342;28;20058;-45
2023/04/08 04:41:39;;;;;;;47.35;26.25;;;11.60;65.80;;;;;;4964570;28;20488;-46
2023/04/08 04:44:06;;;;;;;44.08;24.52;;;11.60;65.70;;;;;;4964113;28;20066;-49
2023/04/08 04:46:34;;;;;;;42.65;25.17;;;11.70;65.60;;;;;;4963576;28;20109;-49
2023/04/08 04:49:02;;;;;;;43.97;26.55;;;11.70;65.50;;;;;;4961993;28;20058;-47
2023/04/08 04:51:31;;;;;;;43.40;24.88;;;11.70;65.20;;;;;;4966053;28;20518;-46
2023/04/08 04:53:59;;;;;;;42.50;23.80;;;11.70;65.00;;;;;;4968039;28;20396;-44
2023/04/08 04:56:27;;;;;;;41.78;24.48;;;11.80;65.00;;;;;;4967619;28;20054;-45
2023/04/08 04:58:54;;;;;;;41.53;23.55;;;11.80;65.00;;;;;;4968279;28;20495;-46
2023/04/08 05:01:22;;;;;;;44.13;25.50;;;11.80;64.90;;;;;;4965745;28;20043;-47
2023/04/08 05:03:49;;;;;;;44.67;26.67;;;11.80;65.60;;;;;;4965983;28;20805;-45
2023/04/08 05:06:17;;;;;;;40.05;23.40;;;11.80;64.70;;;;;;4967840;28;20061;-52
2023/04/08 05:08:45;;;;;;;41.13;22.83;;;11.80;64.50;;;;;;4967695;28;20415;-45
2023/04/08 05:11:12;;;;;;;48.15;26.60;;;11.80;64.40;;;;;;4967755;28;20046;-45
2023/04/08 05:13:39;;;;;;;36.70;22.75;;;11.80;64.10;;;;;;4967644;28;20400;-48
2023/04/08 05:16:07;;;;;;;37.28;23.20;;;11.80;63.90;;;;;;4968267;28;20058;-46
2023/04/08 05:18:34;;;;;;;34.53;20.92;;;11.80;63.90;;;;;;4966844;28;20058;-47
2023/04/08 05:21:01;;;;;;;36.00;22.10;;;11.80;63.80;;;;;;4967289;28;20794;-44
2023/04/08 05:23:30;;;;;;;34.13;20.98;;;11.80;63.80;;;;;;4967751;28;20051;-44
2023/04/08 05:25:57;;;;;;;33.58;20.30;;;11.80;63.70;;;;;;4967098;28;20054;-46
2023/04/08 05:28:25;;;;;;;36.20;22.25;;;11.80;63.60;;;;;;4966483;28;20058;-47
2023/04/08 05:30:53;;;;;;;40.63;23.48;;;11.80;63.50;;;;;;4965945;28;20058;-47
2023/04/08 05:33:20;;;;;;;35.80;20.58;;;11.80;63.50;;;;;;4966881;28;20056;-45
2023/04/08 05:35:47;;;;;;;33.38;20.75;;;11.80;63.40;;;;;;4966832;28;20066;-45
2023/04/08 05:38:15;;;;;;;40.53;24.90;;;11.80;63.50;;;;;;4966507;28;20518;-45
2023/04/08 05:40:43;;;;;;;37.88;23.05;;;11.80;63.40;;;;;;4966295;28;20051;-45
2023/04/08 05:43:10;;;;;;;59.50;28.15;;;11.80;63.40;;;;;;4966488;28;20085;-49
2023/04/08 05:45:38;;;;;;;61.42;30.08;;;11.80;63.40;;;;;;4967149;28;20475;-46
2023/04/08 05:48:05;;;;;;;58.08;29.83;;;11.80;63.40;;;;;;4966022;28;20062;-44
2023/04/08 05:50:34;;;;;;;49.30;26.92;;;11.80;63.40;;;;;;4965793;28;20860;-48
2023/04/08 05:53:01;;;;;;;52.55;27.67;;;11.80;63.40;;;;;;4967291;28;20058;-46
2023/04/08 05:55:29;;;;;;;50.38;25.88;;;11.90;63.60;;;;;;4964621;28;20345;-47
2023/04/08 05:57:57;;;;;;;45.40;27.00;;;11.90;63.60;;;;;;4966549;28;20055;-46
2023/04/08 06:00:25;;;;;;;50.88;29.60;;;11.90;63.40;;;;;;4965842;28;20051;-46
2023/04/08 06:02:52;;;;;;;52.10;28.25;;;11.80;63.20;;;;;;4966084;28;20061;-45
2023/04/08 06:05:20;;;;;;;52.80;28.95;;;11.80;63.10;;;;;;4964999;28;20057;-45
2023/04/08 06:07:47;;;;;;;60.70;29.50;;;11.80;63.10;;;;;;4967398;28;20065;-45
2023/04/08 06:10:14;;;;;;;49.15;27.05;;;11.80;63.20;;;;;;4967311;28;20452;-46
2023/04/08 06:12:42;;;;;;;65.28;30.95;;;11.70;63.40;;;;;;4964917;28;20507;-47
2023/04/08 06:15:10;;;;;;;57.92;31.00;;;11.60;63.60;;;;;;4965656;28;20058;-45
2023/04/08 06:17:38;;;;;;;47.67;27.88;;;11.60;63.80;;;;;;4965721;28;20062;-46
2023/04/08 06:20:08;;;;;;;62.65;31.80;;;11.60;63.90;;;;;;4964731;28;20059;-48
2023/04/08 06:22:35;;;;;;;57.90;30.48;;;11.60;64.20;;;;;;4965927;28;20058;-45
2023/04/08 06:25:03;;;;;;;50.55;28.30;;;11.60;64.40;;;;;;4966353;28;20601;-47
2023/04/08 06:27:31;;;;;;;51.10;27.90;;;11.50;64.40;;;;;;4967956;28;20463;-45
2023/04/08 06:29:58;;;;;;;48.60;27.10;;;11.50;64.60;;;;;;4965300;28;20055;-50
2023/04/08 06:32:27;;;;;;;40.92;23.90;;;11.50;64.60;;;;;;4965390;28;20360;-47
2023/04/08 06:34:54;;;;;;;41.22;24.27;;;11.50;64.70;;;;;;4965229;28;20058;-44
2023/04/08 06:37:21;;;;;;;44.85;26.55;;;11.50;64.60;;;;;;4965431;28;20059;-50
2023/04/08 06:39:48;;;;;;;36.47;22.27;;;11.50;64.50;;;;;;4962887;28;20058;-45
2023/04/08 06:42:15;;;;;;;40.22;24.48;;;11.50;64.40;;;;;;4965514;28;20499;-46
2023/04/08 06:44:43;;;;;;;38.97;23.40;;;11.50;64.20;;;;;;4966830;28;20523;-45
2023/04/08 06:47:10;;;;;;;42.50;25.30;;;11.60;64.20;;;;;;4964042;28;20057;-44
2023/04/08 06:49:40;;;;;;;52.20;28.08;;;11.60;64.30;;;;;;4967255;28;20054;-46
2023/04/08 06:52:07;;;;;;;47.72;26.67;;;11.50;64.10;;;;;;4987716;28;20050;-49
2023/04/08 06:54:35;;;;;;;58.13;29.95;;;11.50;63.90;;;;;;4988660;28;20462;-44
2023/04/08 06:57:03;;;;;;;47.35;25.77;;;11.50;63.90;;;;;;4987832;28;20061;-45
2023/04/08 06:59:30;;;;;;;48.58;27.05;;;11.50;63.80;;;;;;4978783;28;20070;-46
2023/04/08 07:01:57;;;;;;;50.53;28.35;;;11.40;64.10;;;;;;4961596;28;20073;-48
2023/04/08 07:04:24;;;;;;;47.28;26.70;;;11.40;64.40;;;;;;4960049;28;20415;-46
2023/04/08 07:06:53;;;;;;;47.45;27.30;;;11.40;64.60;;;;;;4961322;28;20141;-46
2023/04/08 07:09:20;;;;;;;53.78;28.80;;;11.40;65.00;;;;;;4962074;28;20125;-47
2023/04/08 07:11:48;;;;;;;52.17;29.10;;;11.40;65.10;;;;;;4963028;28;20054;-46
2023/04/08 07:14:15;;;;;;;56.83;29.60;;;11.40;65.00;;;;;;4961849;28;20050;-51
2023/04/08 07:16:43;;;;;;;48.60;27.48;;;11.40;65.10;;;;;;4963432;28;20059;-47
2023/04/08 07:19:10;;;;;;;54.80;29.45;;;11.40;65.00;;;;;;4961204;28;20422;-47
2023/04/08 07:21:37;;;;;;;48.10;27.20;;;11.40;64.80;;;;;;4962916;28;20062;-47
2023/04/08 07:24:06;;;;;;;52.72;29.30;;;11.40;64.60;;;;;;4963175;28;20407;-49
2023/04/08 07:26:34;;;;;;;51.83;28.33;;;11.40;64.80;;;;;;4963129;28;20078;-46
2023/04/08 07:29:01;;;;;;;54.42;29.13;;;11.40;64.90;;;;;;4962316;28;20077;-47
2023/04/08 07:31:28;;;;;;;52.15;29.55;;;11.40;64.70;;;;;;4960318;28;20054;-48
2023/04/08 07:33:55;;;;;;;47.08;27.75;;;11.40;64.60;;;;;;4960718;28;20084;-48
2023/04/08 07:36:23;;;;;;;49.88;28.25;;;11.40;64.40;;;;;;4959881;28;20065;-49
2023/04/08 07:38:50;;;;;;;53.05;28.38;;;11.30;64.40;;;;;;4964343;28;20384;-46
2023/04/08 07:41:19;;;;;;;47.70;26.52;;;11.30;64.60;;;;;;4961309;28;20081;-49
2023/04/08 07:43:47;;;;;;;49.90;26.67;;;11.30;64.90;;;;;;4962687;28;20059;-48
2023/04/08 07:46:14;;;;;;;47.58;26.23;;;11.30;65.10;;;;;;4964049;28;20063;-47
2023/04/08 07:48:41;;;;;;;53.65;29.08;;;11.40;65.20;;;;;;4961288;28;20522;-47
2023/04/08 07:51:09;;;;;;;47.38;27.30;;;11.40;65.10;;;;;;4960302;28;20043;-47
2023/04/08 07:53:37;;;;;;;52.58;29.40;;;11.40;64.90;;;;;;4959794;28;20086;-47
2023/04/08 07:56:11;;;;;;;53.97;29.65;;;11.50;64.90;;;;;;4961307;28;20479;-47
2023/04/08 07:58:40;;;;;;;63.30;30.95;;;11.50;65.00;;;;;;4962105;28;20493;-47
2023/04/08 08:01:16;;;;;;;57.50;31.25;;;11.50;64.80;;;;;;4961753;28;20051;-48
2023/04/08 08:03:44;;;;;;;51.80;30.25;;;11.60;64.50;;;;;;4961241;28;20415;-49
2023/04/08 08:06:12;;;;;;;55.42;30.55;;;11.60;64.30;;;;;;4960514;28;20065;-46
2023/04/08 08:08:39;;;;;;;53.35;29.80;;;11.50;64.00;;;;;;4961067;28;20742;-47
2023/04/08 08:11:07;;;;;;;50.00;28.38;;;11.50;64.00;;;;;;4962334;28;20054;-46
2023/04/08 08:13:34;;;;;;;53.30;28.25;;;11.50;64.00;;;;;;4960289;28;20065;-46
2023/04/08 08:16:07;;;;;;;55.08;29.85;;;11.50;64.00;;;;;;4962599;28;20066;-46
2023/04/08 08:18:36;;;;;;;44.10;25.15;;;11.50;64.00;;;;;;4960824;28;20430;-47
2023/04/08 08:21:04;;;;;;;53.90;28.45;;;11.50;64.00;;;;;;4962274;28;20157;-51
2023/04/08 08:23:32;;;;;;;46.25;26.98;;;11.50;64.20;;;;;;4962431;28;20078;-48
2023/04/08 08:26:00;;;;;;;55.40;29.23;;;11.60;64.50;;;;;;4963633;28;20423;-45
2023/04/08 08:28:27;;;;;;;53.80;28.92;;;11.60;64.20;;;;;;4967366;28;20054;-48
2023/04/08 08:30:55;;;;;;;56.97;30.20;;;11.60;63.90;;;;;;4967290;28;20074;-47
2023/04/08 08:33:24;;;;;;;52.30;28.83;;;11.60;63.60;;;;;;4965452;28;20593;-48
2023/04/08 08:35:52;;;;;;;57.92;30.88;;;11.60;63.60;;;;;;4965761;28;20054;-47
2023/04/08 08:38:19;;;;;;;57.53;29.25;;;11.60;63.80;;;;;;4966040;28;20067;-46
2023/04/08 08:40:47;;;;;;;55.92;30.15;;;11.60;64.00;;;;;;4962795;28;20054;-53
2023/04/08 08:43:14;;;;;;;50.33;29.23;;;11.60;64.20;;;;;;4965126;28;20051;-49
2023/04/08 08:45:42;;;;;;;48.55;27.27;;;11.60;63.60;;;;;;4966413;28;20062;-47
2023/04/08 08:48:09;;;;;;;48.65;26.98;;;11.60;63.70;;;;;;4965652;28;20057;-47
2023/04/08 08:50:38;;;;;;;52.45;27.98;;;11.60;64.00;;;;;;4964849;28;20058;-47
2023/04/08 08:53:05;;;;;;;54.25;29.02;;;11.60;63.60;;;;;;4966684;28;20054;-51
2023/04/08 08:55:33;;;;;;;47.47;26.17;;;11.60;63.40;;;;;;4967924;28;20054;-51
2023/04/08 08:58:01;;;;;;;48.47;27.65;;;11.60;63.50;;;;;;4967536;28;20054;-49
2023/04/08 09:00:32;;;;;;;61.08;35.58;;;11.50;63.40;;;;;;4966742;28;20054;-46
2023/04/08 09:03:15;;;;;;;54.85;31.13;;;11.50;63.80;;;;;;4966092;28;20495;-48
2023/04/08 09:05:51;;;;;;;48.17;27.63;;;11.50;63.80;;;;;;4964213;28;20055;-47
2023/04/08 09:08:26;;;;;;;50.72;28.67;;;11.50;64.40;;;;;;4966819;28;20065;-48
2023/04/08 09:10:54;;;;;;;45.35;26.48;;;11.50;64.10;;;;;;4963710;28;20564;-46
2023/04/08 09:13:23;;;;;;;51.08;28.70;;;11.50;64.10;;;;;;4965208;28;20050;-51
2023/04/08 09:16:04;;;;;;;51.20;28.48;;;11.60;64.00;;;;;;4966336;28;20063;-47
2023/04/08 09:18:32;;;;;;;47.65;27.13;;;11.60;64.20;;;;;;4962606;28;20407;-49
2023/04/08 09:21:01;;;;;;;58.72;31.00;;;11.60;64.30;;;;;;4963248;28;20055;-51
2023/04/08 09:23:40;;;;;;;59.25;30.63;;;11.60;64.10;;;;;;4962883;28;20061;-47
2023/04/08 09:26:11;;;;;;;52.47;29.38;;;11.60;64.10;;;;;;4965858;28;20054;-47
2023/04/08 09:28:39;;;;;;;64.32;37.75;;;11.70;64.00;;;;;;4964683;28;20058;-47
2023/04/08 09:31:20;;;;;;;50.53;29.27;;;11.70;64.10;;;;;;4961306;28;20565;-46
2023/04/08 09:33:48;;;;;;;45.88;27.17;;;11.70;64.00;;;;;;4965342;28;20054;-46
2023/04/08 09:36:17;;;;;;;59.60;32.15;;;11.80;64.10;;;;;;4964305;28;20051;-47
2023/04/08 09:38:45;;;;;;;48.33;27.92;;;11.80;64.30;;;;;;4964265;28;20058;-47
2023/04/08 09:41:15;;;;;;;50.25;28.98;;;11.80;64.40;;;;;;4964420;28;20058;-48
2023/04/08 09:43:47;;;;;;;55.58;32.20;;;11.90;63.90;;;;;;4964576;28;20066;-49
2023/04/08 09:46:17;;;;;;;52.42;31.08;;;11.90;63.50;;;;;;4965052;28;20054;-49
2023/04/08 09:48:50;;;;;;;53.88;31.20;;;11.90;63.40;;;;;;4963475;28;20066;-46
2023/04/08 09:51:22;;;;;;;63.97;37.60;;;11.90;63.10;;;;;;4964998;28;20121;-46
2023/04/08 09:53:56;;;;;;;87.13;49.67;;;11.90;63.10;;;;;;4964683;28;20054;-51
2023/04/08 09:56:26;;;;;;;55.50;31.60;;;11.90;63.10;;;;;;4964790;28;20063;-48
2023/04/08 09:58:59;;;;;;;51.67;29.27;;;12.00;63.30;;;;;;4964272;28;20058;-50
2023/04/08 10:01:39;;;;;;;53.30;30.33;;;11.90;63.30;;;;;;4964169;28;20080;-47
2023/04/08 10:04:20;;;;;;;52.53;30.90;;;12.00;63.30;;;;;;4962926;28;20497;-46
2023/04/08 10:06:54;;;;;;;60.42;32.45;;;12.00;63.20;;;;;;4964144;28;20066;-47
2023/04/08 10:09:22;;;;;;;59.35;31.00;;;12.10;63.10;;;;;;4963955;28;20054;-54
2023/04/08 10:11:49;;;;;;;154.00;89.15;;;12.10;63.00;;;;;;4964735;28;20047;-51
2023/04/08 10:14:17;;;;;;;65.47;34.85;;;12.00;62.80;;;;;;4964591;28;20478;-49
2023/04/08 10:16:44;;;;;;;105.90;59.65;;;12.10;62.60;;;;;;4963910;28;20534;-47
2023/04/08 10:19:40;;;;;;;60.85;34.67;;;12.10;62.50;;;;;;4962524;28;20063;-47
2023/04/08 10:22:41;;;;;;;58.17;31.10;;;12.10;62.50;;;;;;4963652;28;20055;-48
2023/04/08 10:25:31;;;;;;;69.18;37.55;;;12.10;62.10;;;;;;4963929;28;20058;-49
2023/04/08 10:27:59;;;;;;;88.57;47.13;;;12.10;62.00;;;;;;4964131;28;20116;-47
2023/04/08 10:30:45;;;;;;;67.72;34.85;;;12.10;62.70;;;;;;4963863;28;20514;-52
2023/04/08 10:33:15;;;;;;;61.75;34.15;;;12.10;61.80;;;;;;4962639;28;20057;-46
2023/04/08 10:35:45;;;;;;;51.53;28.52;;;12.10;61.90;;;;;;4962731;28;20526;-47
2023/04/08 10:38:13;;;;;;;49.20;25.70;;;12.10;61.50;;;;;;4964328;28;20054;-48
2023/04/08 10:40:42;;;;;;;47.63;27.30;;;12.10;60.80;;;;;;4964925;28;20173;-46
2023/04/08 10:43:11;;;;;;;51.33;27.85;;;12.10;60.90;;;;;;4963495;28;20063;-47
2023/04/08 10:45:38;;;;;;;65.35;36.85;;;12.10;61.10;;;;;;4963337;28;20065;-49
2023/04/08 10:48:17;;;;;;;51.47;29.23;;;12.20;60.80;;;;;;4963460;28;20058;-49
2023/04/08 10:50:44;;;;;;;45.92;26.25;;;12.20;60.60;;;;;;4962745;28;20062;-48
2023/04/08 10:53:12;;;;;;;52.40;28.23;;;12.20;60.40;;;;;;4962509;28;20644;-48
2023/04/08 10:55:41;;;;;;;49.92;27.65;;;12.20;60.40;;;;;;4962895;28;20051;-49
2023/04/08 10:58:10;;;;;;;46.67;26.48;;;12.20;60.50;;;;;;4963783;28;20055;-47
2023/04/08 11:00:39;;;;;;;48.85;26.42;;;12.20;60.70;;;;;;4963761;28;20058;-47
2023/04/08 11:03:07;;;;;;;45.55;25.95;;;12.30;61.00;;;;;;4925134;29;20060;-50
2023/04/08 11:05:36;;;;;;;44.08;25.38;;;12.30;60.90;;;;;;4923452;28;20075;-47
2023/04/08 11:08:05;;;;;;;44.28;24.10;;;12.30;61.50;;;;;;4924790;28;20063;-46
2023/04/08 11:10:37;;;;;;;44.63;26.52;;;12.40;60.30;;;;;;4925333;28;20063;-49
2023/04/08 11:13:08;;;;;;;53.22;28.77;;;12.50;59.80;;;;;;4924742;29;20059;-47
2023/04/08 11:15:36;;;;;;;45.97;26.20;;;12.50;59.30;;;;;;4924824;28;20063;-48
2023/04/08 11:18:04;;;;;;;46.88;26.67;;;12.50;58.90;;;;;;4924553;28;20085;-49
2023/04/08 11:20:35;;;;;;;45.78;26.83;;;12.60;58.70;;;;;;4923151;28;20493;-46
2023/04/08 11:23:02;;;;;;;52.10;27.08;;;12.60;58.90;;;;;;4924671;28;20063;-48
2023/04/08 11:25:33;;;;;;;39.45;22.38;;;12.60;58.90;;;;;;4925225;29;20048;-46
2023/04/08 11:28:00;;;;;;;48.60;27.17;;;12.70;59.20;;;;;;4924669;28;20051;-48
2023/04/08 11:30:29;;;;;;;40.47;24.60;;;12.70;58.50;;;;;;4924210;29;20492;-48
2023/04/08 11:32:57;;;;;;;45.17;25.20;;;12.80;58.50;;;;;;4924405;28;20062;-49
2023/04/08 11:35:29;;;;;;;45.35;26.23;;;12.80;57.90;;;;;;4922837;28;20051;-47
2023/04/08 11:37:57;;;;;;;51.75;26.10;;;12.80;57.60;;;;;;4923830;28;20519;-51
2023/04/08 11:40:25;;;;;;;46.85;25.42;;;12.80;57.60;;;;;;4927264;28;20063;-50
2023/04/08 11:42:52;;;;;;;44.17;25.42;;;12.90;57.60;;;;;;4928119;28;20508;-51
2023/04/08 11:45:21;;;;;;;39.35;22.95;;;12.80;57.40;;;;;;4925839;28;20059;-46
2023/04/08 11:47:50;;;;;;;43.70;24.65;;;12.80;57.60;;;;;;4927580;28;20055;-49
2023/04/08 11:50:23;;;;;;;42.85;24.27;;;12.90;57.40;;;;;;4925970;28;20419;-52
2023/04/08 11:52:51;;;;;;;40.22;24.02;;;12.90;56.50;;;;;;4926893;29;20838;-50
2023/04/08 11:55:26;;;;;;;47.10;25.10;;;12.90;56.90;;;;;;4926584;28;20522;-47
2023/04/08 11:57:55;;;;;;;40.03;22.75;;;12.90;57.10;;;;;;4925944;28;20079;-47
2023/04/08 12:00:23;;;;;;;37.20;22.08;;;12.90;57.40;;;;;;4925304;28;20056;-51
2023/04/08 12:02:52;;;;;;;41.88;23.85;;;12.90;57.60;;;;;;4959921;28;20085;-48
2023/04/08 12:05:20;;;;;;;42.97;25.15;;;12.90;57.50;;;;;;4963257;28;20070;-47
2023/04/08 12:07:48;;;;;;;36.90;22.60;;;12.90;57.30;;;;;;4965491;28;20529;-50
2023/04/08 12:10:15;;;;;;;39.50;24.35;;;13.00;57.50;;;;;;4964965;28;20062;-48
2023/04/08 12:12:42;;;;;;;38.78;22.90;;;13.00;57.20;;;;;;4965680;28;20065;-49
2023/04/08 12:15:10;;;;;;;43.58;24.98;;;13.00;57.10;;;;;;4962817;28;20077;-46
2023/04/08 12:17:38;;;;;;;41.42;24.48;;;13.00;56.30;;;;;;4964197;28;20521;-47
2023/04/08 12:20:08;;;;;;;46.13;26.13;;;13.10;56.20;;;;;;4961671;28;20058;-51
2023/04/08 12:22:36;;;;;;;39.00;22.23;;;13.10;56.50;;;;;;4963348;28;20059;-48
2023/04/08 12:25:03;;;;;;;35.55;20.75;;;13.10;57.00;;;;;;4963728;28;20055;-48
2023/04/08 12:27:32;;;;;;;47.08;22.60;;;13.10;57.20;;;;;;4964283;28;20055;-51
2023/04/08 12:29:59;;;;;;;40.28;24.20;;;13.20;57.60;;;;;;4963137;28;20062;-54
2023/04/08 12:32:27;;;;;;;42.25;24.85;;;13.20;57.30;;;;;;4966036;28;20511;-52
2023/04/08 12:34:54;;;;;;;48.15;25.02;;;13.30;56.70;;;;;;4965008;28;20054;-47